Time;durP1;ratioP1;P1;durP2;ratioP2;P2;SDS_P1;SDS_P2;PMS_P1;PMS_P2;Temp;Humidity;BMP_temperature;BMP_pressure;BME280_temperature;BME280_humidity;BME280_pressure;Samples;Min_cycle;Max_cycle;Signal;HPM_P1;HPM_P2
2021/07/21 00:00:34;;;;;;;11.43;6.97;;;19.70;93.50;;;;;;4842609;29;20576;-73
2021/07/21 00:03:00;;;;;;;11.13;6.93;;;19.70;93.60;;;;;;4842744;29;20329;-73
2021/07/21 00:05:26;;;;;;;12.60;7.18;;;19.70;93.90;;;;;;4842225;29;20069;-73
2021/07/21 00:07:56;;;;;;;13.07;7.93;;;19.60;93.70;;;;;;4842404;29;20034;-73
2021/07/21 00:10:24;;;;;;;12.10;7.53;;;19.70;93.70;;;;;;4825949;29;20053;-72
2021/07/21 00:15:37;;;;;;;12.48;7.38;;;19.80;93.80;;;;;;4842320;29;20041;-74
2021/07/21 00:21:04;;;;;;;12.40;7.07;;;19.80;93.60;;;;;;4811253;29;19923;-73
2021/07/21 00:23:30;;;;;;;11.52;6.97;;;19.80;93.60;;;;;;4842477;29;20022;-74
2021/07/21 00:25:56;;;;;;;12.15;7.45;;;19.80;93.70;;;;;;4825727;29;20326;-72
2021/07/21 00:28:22;;;;;;;15.07;7.45;;;19.80;93.70;;;;;;4841903;29;20034;-73
2021/07/21 00:30:48;;;;;;;11.77;7.50;;;19.80;93.70;;;;;;4841906;29;20088;-73
2021/07/21 00:33:14;;;;;;;15.48;8.25;;;19.90;93.70;;;;;;4841700;29;20098;-73
2021/07/21 00:35:40;;;;;;;16.33;8.38;;;19.80;93.70;;;;;;4825491;29;20591;-73
2021/07/21 00:38:06;;;;;;;11.68;7.30;;;19.70;93.90;;;;;;4841949;29;20064;-73
2021/07/21 00:40:32;;;;;;;14.30;7.85;;;19.60;94.00;;;;;;4841825;29;20057;-73
2021/07/21 00:42:58;;;;;;;14.13;7.97;;;19.70;94.10;;;;;;4841822;29;20392;-74
2021/07/21 00:45:24;;;;;;;12.82;7.40;;;19.60;94.00;;;;;;4841699;29;20134;-74
2021/07/21 00:47:50;;;;;;;13.23;8.05;;;19.60;94.10;;;;;;4842168;29;20109;-74
2021/07/21 00:50:15;;;;;;;14.05;8.40;;;19.60;94.10;;;;;;4841581;29;20034;-72
2021/07/21 00:52:42;;;;;;;12.60;7.50;;;19.60;94.10;;;;;;4841479;29;20026;-74
2021/07/21 00:55:11;;;;;;;14.75;8.20;;;19.70;93.90;;;;;;4824909;29;20380;-74
2021/07/21 00:57:38;;;;;;;14.43;8.15;;;19.60;94.20;;;;;;4841360;29;20044;-73
2021/07/21 01:00:06;;;;;;;13.00;7.53;;;19.60;94.10;;;;;;4841187;29;20036;-74
2021/07/21 01:02:32;;;;;;;12.38;7.32;;;19.60;94.30;;;;;;4841201;29;20094;-72
2021/07/21 01:04:58;;;;;;;14.10;8.00;;;19.60;94.60;;;;;;4840502;29;20038;-72
2021/07/21 01:07:23;;;;;;;13.38;7.95;;;19.60;94.30;;;;;;4824303;29;20038;-74
2021/07/21 01:09:49;;;;;;;11.38;7.32;;;19.60;94.30;;;;;;4840779;29;20034;-73
2021/07/21 01:12:27;;;;;;;15.77;7.88;;;19.70;94.20;;;;;;4840640;29;20053;-73
2021/07/21 01:15:17;;;;;;;18.95;9.68;;;19.70;94.20;;;;;;4824752;29;20113;-73
2021/07/21 01:18:07;;;;;;;15.77;8.73;;;19.70;94.20;;;;;;4839978;29;20030;-73
2021/07/21 01:21:10;;;;;;;14.32;8.57;;;19.60;94.40;;;;;;4840525;29;20046;-74
2021/07/21 01:23:48;;;;;;;17.60;8.55;;;19.60;94.30;;;;;;4839381;29;20041;-74
2021/07/21 01:26:25;;;;;;;13.27;7.78;;;19.60;94.40;;;;;;4840268;29;20049;-74
2021/07/21 01:28:53;;;;;;;16.77;8.90;;;19.60;94.50;;;;;;4840408;29;20034;-75
2021/07/21 01:31:27;;;;;;;14.65;8.65;;;19.50;94.60;;;;;;4839967;29;20536;-74
2021/07/21 01:33:56;;;;;;;14.77;8.60;;;19.50;94.60;;;;;;4840220;29;20053;-73
2021/07/21 01:36:25;;;;;;;13.05;8.30;;;19.60;94.50;;;;;;4851636;29;20444;-74
2021/07/21 01:38:55;;;;;;;13.43;8.88;;;19.60;94.50;;;;;;4859025;29;20030;-72
2021/07/21 01:41:28;;;;;;;15.52;9.43;;;19.60;94.50;;;;;;4858435;29;20105;-73
2021/07/21 01:44:03;;;;;;;16.40;9.43;;;19.70;94.40;;;;;;4858598;29;20038;-73
2021/07/21 01:46:30;;;;;;;15.52;8.55;;;19.60;94.50;;;;;;4858327;29;20030;-74
2021/07/21 01:48:59;;;;;;;16.65;9.23;;;19.60;94.60;;;;;;4858470;29;20500;-74
2021/07/21 01:51:25;;;;;;;14.93;9.45;;;19.50;94.80;;;;;;4858351;29;20118;-75
2021/07/21 01:53:53;;;;;;;19.80;9.88;;;19.50;94.80;;;;;;4842403;29;20165;-75
2021/07/21 01:56:21;;;;;;;18.15;9.80;;;19.50;94.60;;;;;;4858412;29;20041;-75
2021/07/21 01:58:49;;;;;;;19.25;10.32;;;19.50;94.80;;;;;;4841996;29;20083;-74
2021/07/21 02:01:16;;;;;;;19.05;9.45;;;19.40;94.80;;;;;;4858133;29;20562;-75
2021/07/21 02:03:43;;;;;;;16.60;9.93;;;19.50;95.00;;;;;;4824245;29;1027472;-73
2021/07/21 02:06:09;;;;;;;18.60;10.20;;;19.50;94.90;;;;;;4858879;29;20071;-74
2021/07/21 02:08:36;;;;;;;16.05;9.68;;;19.40;95.00;;;;;;4842841;29;20021;-74
2021/07/21 02:11:04;;;;;;;16.00;9.52;;;19.40;94.90;;;;;;4858952;29;20372;-74
2021/07/21 02:13:31;;;;;;;21.08;10.57;;;19.40;94.90;;;;;;4842531;29;20165;-73
2021/07/21 02:15:59;;;;;;;17.20;10.30;;;19.40;95.10;;;;;;4858765;29;20037;-74
2021/07/21 02:18:25;;;;;;;18.23;9.95;;;19.40;95.10;;;;;;4858728;29;20030;-74
2021/07/21 02:20:52;;;;;;;15.07;9.55;;;19.40;95.20;;;;;;4859342;29;20097;-73
2021/07/21 02:23:20;;;;;;;15.82;9.13;;;19.30;95.30;;;;;;4858685;29;20057;-74
2021/07/21 02:25:46;;;;;;;;;;;19.40;95.20;;;;;;4859004;29;20026;-74
2021/07/21 02:28:14;;;;;;;18.73;9.23;;;19.30;95.30;;;;;;4857721;29;19912;-75
2021/07/21 02:30:41;;;;;;;18.13;9.30;;;19.40;95.40;;;;;;4858781;29;20094;-73
2021/07/21 02:33:15;;;;;;;16.92;9.52;;;19.40;95.30;;;;;;4858547;29;20026;-74
2021/07/21 02:35:40;;;;;;;16.70;9.40;;;19.40;95.30;;;;;;4859466;29;20220;-74
2021/07/21 02:38:06;;;;;;;18.42;9.15;;;19.30;95.40;;;;;;4858438;29;20033;-74
2021/07/21 02:40:32;;;;;;;15.77;9.30;;;19.30;95.40;;;;;;4858503;29;20038;-72
2021/07/21 02:42:58;;;;;;;18.65;10.13;;;19.30;95.50;;;;;;4858539;29;20045;-74
2021/07/21 02:45:25;;;;;;;16.05;9.18;;;19.30;95.50;;;;;;4858806;29;20044;-73
2021/07/21 02:47:52;;;;;;;16.75;9.57;;;19.40;95.60;;;;;;4858937;29;20026;-73
2021/07/21 02:50:19;;;;;;;15.45;9.32;;;19.40;95.50;;;;;;4858515;29;20034;-73
2021/07/21 02:52:55;;;;;;;19.35;9.77;;;19.40;95.60;;;;;;4842005;29;20068;-73
2021/07/21 02:55:38;;;;;;;24.98;10.35;;;19.40;95.70;;;;;;4858571;29;20355;-73
2021/07/21 02:58:28;;;;;;;15.85;8.30;;;19.40;95.60;;;;;;4858617;29;20072;-73
2021/07/21 03:01:00;;;;;;;14.10;8.88;;;19.40;95.60;;;;;;4858560;29;20068;-73
2021/07/21 03:03:26;;;;;;;16.63;9.13;;;19.40;95.60;;;;;;4843509;29;20050;-73
2021/07/21 03:05:57;;;;;;;16.23;8.68;;;19.40;95.60;;;;;;4840433;29;20034;-72
2021/07/21 03:08:27;;;;;;;16.58;9.13;;;19.40;95.60;;;;;;4839956;29;20106;-73
2021/07/21 03:10:59;;;;;;;15.82;9.02;;;19.40;95.60;;;;;;4839872;29;20054;-73
2021/07/21 03:13:42;;;;;;;16.08;8.93;;;19.40;95.60;;;;;;4839840;29;20381;-74
2021/07/21 03:16:09;;;;;;;17.20;8.82;;;19.40;95.60;;;;;;4839749;29;20046;-74
2021/07/21 03:18:37;;;;;;;21.58;9.82;;;19.50;95.70;;;;;;4823848;29;20107;-73
2021/07/21 03:21:03;;;;;;;16.10;9.50;;;19.40;95.80;;;;;;4839701;29;20038;-73
2021/07/21 03:23:30;;;;;;;15.32;8.20;;;19.30;95.80;;;;;;4840081;29;20026;-74
2021/07/21 03:25:59;;;;;;;14.98;8.70;;;19.40;95.80;;;;;;4839689;29;20461;-74
2021/07/21 03:28:26;;;;;;;14.80;8.75;;;19.30;95.80;;;;;;4839636;29;20034;-73
2021/07/21 03:30:54;;;;;;;16.83;8.60;;;19.30;95.90;;;;;;4839643;29;20049;-74
2021/07/21 03:33:20;;;;;;;15.95;9.13;;;19.30;95.80;;;;;;4839659;29;20087;-72
2021/07/21 03:35:47;;;;;;;15.23;8.25;;;19.30;95.90;;;;;;4840116;29;20026;-72
2021/07/21 03:38:16;;;;;;;15.05;8.13;;;19.40;95.70;;;;;;4839697;29;20030;-72
2021/07/21 03:40:43;;;;;;;19.05;8.73;;;19.40;95.90;;;;;;4841581;29;20046;-73
2021/07/21 03:43:09;;;;;;;19.48;8.77;;;19.40;95.90;;;;;;4843167;29;20046;-76
2021/07/21 03:45:35;;;;;;;15.00;9.20;;;19.40;95.90;;;;;;4842793;29;20088;-73
2021/07/21 03:48:02;;;;;;;17.77;8.65;;;19.30;95.90;;;;;;4843463;29;20068;-76
2021/07/21 03:50:28;;;;;;;15.45;8.85;;;19.30;95.80;;;;;;4842918;29;20046;-76
2021/07/21 03:52:54;;;;;;;14.70;8.48;;;19.30;95.90;;;;;;4826279;29;20102;-75
2021/07/21 03:55:23;;;;;;;16.13;7.95;;;19.30;96.00;;;;;;4842614;29;20118;-75
2021/07/21 03:57:49;;;;;;;16.85;8.88;;;19.30;96.00;;;;;;4842607;29;20041;-75
2021/07/21 04:00:19;;;;;;;17.38;8.75;;;19.20;96.20;;;;;;4842403;29;20471;-74
2021/07/21 04:02:49;;;;;;;22.27;8.95;;;19.30;96.20;;;;;;4842534;29;20046;-75
2021/07/21 04:05:15;;;;;;;14.43;8.32;;;19.30;96.20;;;;;;4842772;29;20121;-73
2021/07/21 04:07:43;;;;;;;15.55;8.77;;;19.30;96.20;;;;;;4842622;29;20072;-74
2021/07/21 04:10:10;;;;;;;25.00;9.82;;;19.30;96.30;;;;;;4826179;29;20098;-76
2021/07/21 04:12:40;;;;;;;16.05;9.68;;;19.30;96.30;;;;;;4842488;29;20050;-73
2021/07/21 04:15:07;;;;;;;16.02;9.93;;;19.30;96.30;;;;;;4842308;29;20030;-74
2021/07/21 04:17:34;;;;;;;16.67;9.18;;;19.30;96.30;;;;;;4842651;29;20452;-74
2021/07/21 04:20:01;;;;;;;20.30;10.37;;;19.30;96.60;;;;;;4842250;29;20034;-73
2021/07/21 04:22:27;;;;;;;21.80;10.43;;;19.20;96.40;;;;;;4826041;29;20117;-73
2021/07/21 04:24:56;;;;;;;19.13;10.07;;;19.20;96.50;;;;;;4842323;29;20046;-73
2021/07/21 04:27:22;;;;;;;16.75;9.48;;;19.30;96.40;;;;;;4842270;29;23714;-73
2021/07/21 04:29:50;;;;;;;17.13;10.15;;;19.30;96.50;;;;;;4842516;29;20037;-73
2021/07/21 04:32:16;;;;;;;16.50;9.85;;;19.30;96.60;;;;;;4825897;29;20033;-74
2021/07/21 04:34:45;;;;;;;20.98;10.93;;;19.20;96.60;;;;;;4842207;29;20365;-74
2021/07/21 04:37:11;;;;;;;18.42;10.45;;;19.20;96.70;;;;;;4841753;29;20042;-74
2021/07/21 04:39:38;;;;;;;18.45;10.05;;;19.10;96.80;;;;;;4841840;29;20472;-74
2021/07/21 04:42:04;;;;;;;16.27;9.43;;;19.20;96.70;;;;;;4841829;29;20045;-74
2021/07/21 04:44:30;;;;;;;18.50;9.85;;;19.10;96.80;;;;;;4842326;29;20040;-74
2021/07/21 04:46:59;;;;;;;18.02;10.38;;;19.10;96.80;;;;;;4841866;29;20038;-75
2021/07/21 04:49:25;;;;;;;;;;;19.10;96.90;;;;;;4825416;29;20034;-75
2021/07/21 04:51:52;;;;;;;18.98;9.60;;;19.20;96.80;;;;;;4840742;29;19912;-76
2021/07/21 04:54:18;;;;;;;18.45;9.95;;;19.20;96.90;;;;;;4841527;29;20113;-74
2021/07/21 04:56:44;;;;;;;16.77;10.13;;;19.20;96.90;;;;;;4841978;29;20109;-74
2021/07/21 04:59:10;;;;;;;16.08;8.95;;;19.20;97.00;;;;;;4841355;29;20049;-75
2021/07/21 05:01:37;;;;;;;15.35;9.32;;;19.20;97.00;;;;;;4841671;29;20125;-74
2021/07/21 05:04:04;;;;;;;25.13;9.00;;;19.20;97.10;;;;;;4859812;29;20034;-75
2021/07/21 05:06:31;;;;;;;22.92;9.80;;;19.30;97.00;;;;;;4859708;29;20280;-76
2021/07/21 05:08:57;;;;;;;19.10;9.75;;;19.30;97.10;;;;;;4860193;29;20022;-77
2021/07/21 05:11:23;;;;;;;19.60;10.82;;;19.30;97.00;;;;;;4859878;29;20073;-90
2021/07/21 05:13:48;;;;;;;16.73;9.63;;;19.30;96.90;;;;;;4842974;29;20060;-75
2021/07/21 05:16:14;;;;;;;17.52;9.70;;;19.20;97.00;;;;;;4859508;29;20033;-76
2021/07/21 05:18:42;;;;;;;21.55;9.90;;;19.30;97.00;;;;;;4859361;29;20045;-75
2021/07/21 05:21:08;;;;;;;18.50;9.27;;;19.20;97.00;;;;;;4859285;29;20034;-75
2021/07/21 05:23:34;;;;;;;22.55;8.50;;;19.30;97.10;;;;;;4843635;29;20041;-75
2021/07/21 05:26:00;;;;;;;16.42;9.27;;;19.30;97.10;;;;;;4859282;29;20026;-74
2021/07/21 05:28:27;;;;;;;24.48;10.10;;;19.30;97.10;;;;;;4859343;29;20033;-74
2021/07/21 05:30:53;;;;;;;21.33;9.75;;;19.30;97.20;;;;;;4843011;29;20042;-74
2021/07/21 05:33:19;;;;;;;19.27;9.52;;;19.20;97.30;;;;;;4858978;29;20025;-76
2021/07/21 05:35:44;;;;;;;25.35;11.05;;;19.30;97.30;;;;;;4859703;29;20032;-74
2021/07/21 05:38:11;;;;;;;20.58;11.60;;;19.30;97.20;;;;;;4859159;29;20376;-73
2021/07/21 05:40:36;;;;;;;22.40;11.10;;;19.40;97.30;;;;;;4842722;29;20049;-71
2021/07/21 05:43:03;;;;;;;16.33;10.15;;;19.30;97.40;;;;;;4859087;29;20113;-69
2021/07/21 05:45:28;;;;;;;22.38;11.23;;;19.40;97.30;;;;;;4859110;29;20037;-72
2021/07/21 05:47:54;;;;;;;21.00;10.88;;;19.30;97.40;;;;;;4859569;29;20106;-72
2021/07/21 05:50:20;;;;;;;23.67;11.98;;;19.30;97.70;;;;;;4858051;29;20026;-73
2021/07/21 05:52:45;;;;;;;29.70;12.75;;;19.40;97.40;;;;;;4858661;29;20158;-73
2021/07/21 05:55:12;;;;;;;21.65;11.70;;;19.50;97.30;;;;;;4859027;29;20039;-73
2021/07/21 05:57:38;;;;;;;22.73;11.57;;;19.50;97.10;;;;;;4858744;29;20052;-72
2021/07/21 06:00:07;;;;;;;21.98;11.27;;;19.60;97.20;;;;;;4858863;29;20411;-72
2021/07/21 06:02:33;;;;;;;22.75;10.88;;;19.70;97.10;;;;;;4858552;29;20052;-73
2021/07/21 06:04:58;;;;;;;20.42;10.93;;;19.70;97.00;;;;;;4858510;29;20105;-72
2021/07/21 06:07:24;;;;;;;29.73;13.15;;;19.70;97.00;;;;;;4858904;29;20029;-72
2021/07/21 06:09:50;;;;;;;21.23;12.10;;;19.70;96.90;;;;;;4858616;29;20117;-71
2021/07/21 06:12:15;;;;;;;20.70;10.95;;;19.70;96.90;;;;;;4858857;29;20116;-71
2021/07/21 06:14:41;;;;;;;22.20;12.07;;;19.80;96.80;;;;;;4858957;29;20033;-72
2021/07/21 06:17:07;;;;;;;22.70;11.93;;;19.80;96.70;;;;;;4858480;29;20029;-72
2021/07/21 06:19:36;;;;;;;26.23;12.23;;;19.80;96.80;;;;;;4858320;29;20480;-72
2021/07/21 06:22:03;;;;;;;25.85;11.70;;;19.80;96.70;;;;;;4858419;29;20052;-71
2021/07/21 06:24:29;;;;;;;22.45;11.35;;;19.80;96.70;;;;;;4858542;29;20041;-72
2021/07/21 06:26:55;;;;;;;23.38;11.93;;;19.80;96.70;;;;;;4858519;29;20030;-71
2021/07/21 06:29:21;;;;;;;20.70;11.25;;;19.80;96.60;;;;;;4841764;29;20501;-72
2021/07/21 06:31:46;;;;;;;23.38;12.15;;;19.90;96.70;;;;;;4842047;29;20044;-72
2021/07/21 06:34:12;;;;;;;23.10;11.10;;;19.80;96.80;;;;;;4858107;29;20034;-72
2021/07/21 06:36:38;;;;;;;17.73;10.88;;;19.70;96.80;;;;;;4858027;29;20054;-71
2021/07/21 06:39:07;;;;;;;24.98;11.13;;;19.80;96.90;;;;;;4858171;29;20104;-73
2021/07/21 06:41:32;;;;;;;19.55;11.15;;;19.70;96.90;;;;;;4858204;29;20090;-70
2021/07/21 06:44:00;;;;;;;23.77;11.20;;;19.70;96.90;;;;;;4858385;29;20038;-71
2021/07/21 06:46:27;;;;;;;16.55;9.90;;;19.70;96.90;;;;;;4842074;29;20386;-72
2021/07/21 06:48:53;;;;;;;19.30;10.13;;;19.80;96.80;;;;;;4858402;29;20029;-72
2021/07/21 06:51:19;;;;;;;17.98;9.80;;;19.80;96.70;;;;;;4858052;29;20042;-71
2021/07/21 06:53:45;;;;;;;20.83;11.55;;;19.80;96.60;;;;;;4858730;29;20040;-72
2021/07/21 06:56:12;;;;;;;20.25;10.63;;;19.90;96.50;;;;;;4858135;29;20041;-72
2021/07/21 06:58:38;;;;;;;21.13;11.02;;;20.00;96.50;;;;;;4841920;29;20516;-70
2021/07/21 07:01:03;;;;;;;18.00;9.27;;;20.00;96.40;;;;;;4857838;29;20069;-71
2021/07/21 07:03:29;;;;;;;18.23;9.77;;;20.00;96.20;;;;;;4857904;29;20048;-73
2021/07/21 07:05:55;;;;;;;23.58;10.27;;;20.00;96.30;;;;;;4858773;29;20034;-73
2021/07/21 07:08:20;;;;;;;18.10;10.00;;;20.10;96.40;;;;;;4858025;29;20465;-72
2021/07/21 07:10:46;;;;;;;20.90;10.18;;;20.10;96.30;;;;;;4858110;29;20034;-73
2021/07/21 07:13:12;;;;;;;22.00;10.43;;;20.20;96.20;;;;;;4841916;29;20558;-71
2021/07/21 07:15:38;;;;;;;21.52;10.07;;;20.30;96.10;;;;;;4860299;29;20194;-72
2021/07/21 07:18:04;;;;;;;26.92;10.63;;;20.30;96.10;;;;;;4861443;29;20029;-72
2021/07/21 07:20:30;;;;;;;23.75;12.15;;;20.30;96.20;;;;;;4861728;29;20538;-72
2021/07/21 07:22:55;;;;;;;26.35;11.15;;;20.30;96.20;;;;;;4861602;29;20030;-71
2021/07/21 07:25:21;;;;;;;23.80;11.68;;;20.30;96.30;;;;;;4861854;29;20026;-72
2021/07/21 07:27:47;;;;;;;25.38;11.20;;;20.40;96.30;;;;;;4861715;29;20367;-73
2021/07/21 07:30:14;;;;;;;19.67;10.90;;;20.20;96.30;;;;;;4844989;29;20022;-71
2021/07/21 07:32:41;;;;;;;17.77;10.88;;;20.30;96.50;;;;;;4861603;29;20033;-71
2021/07/21 07:35:07;;;;;;;22.42;11.02;;;20.30;96.50;;;;;;4861432;29;20521;-72
2021/07/21 07:37:33;;;;;;;20.88;10.40;;;20.30;96.60;;;;;;4861056;29;20059;-72
2021/07/21 07:39:59;;;;;;;20.50;10.48;;;20.30;96.80;;;;;;4844558;29;20508;-73
2021/07/21 07:42:24;;;;;;;21.83;11.38;;;20.30;96.70;;;;;;4861129;29;20038;-72
2021/07/21 07:44:50;;;;;;;22.15;10.63;;;20.40;96.60;;;;;;4861595;29;20127;-73
2021/07/21 07:47:16;;;;;;;19.20;10.43;;;20.40;96.60;;;;;;4861194;29;20033;-73
2021/07/21 07:49:41;;;;;;;20.30;10.85;;;20.50;96.60;;;;;;4861347;29;20586;-72
2021/07/21 07:52:07;;;;;;;23.85;11.73;;;20.70;96.50;;;;;;4844630;29;20102;-74
2021/07/21 07:54:32;;;;;;;24.38;14.57;;;20.70;96.50;;;;;;4860722;29;20098;-71
2021/07/21 07:56:58;;;;;;;26.08;15.50;;;20.70;96.20;;;;;;4861178;29;20048;-71
2021/07/21 07:59:24;;;;;;;24.60;14.77;;;20.70;96.20;;;;;;4860915;29;20045;-72
2021/07/21 08:01:49;;;;;;;23.15;13.65;;;20.80;96.20;;;;;;4860558;29;20029;-73
2021/07/21 08:04:15;;;;;;;24.38;13.15;;;20.80;96.20;;;;;;4860572;29;20121;-72
2021/07/21 08:06:41;;;;;;;17.73;10.98;;;20.90;96.10;;;;;;4860683;29;20041;-72
2021/07/21 08:09:13;;;;;;;22.83;12.82;;;21.00;95.90;;;;;;4860732;29;20029;-71
2021/07/21 08:11:52;;;;;;;25.80;12.05;;;21.10;95.80;;;;;;4860876;29;20037;-72
2021/07/21 08:14:19;;;;;;;16.77;9.82;;;21.10;95.50;;;;;;4860513;29;20041;-72
2021/07/21 08:16:45;;;;;;;18.58;9.98;;;21.20;95.60;;;;;;4860722;29;20034;-71
2021/07/21 08:19:11;;;;;;;16.60;9.80;;;21.40;95.40;;;;;;4860283;29;20053;-72
2021/07/21 08:21:38;;;;;;;17.88;10.43;;;21.50;95.30;;;;;;4860647;29;20065;-71
2021/07/21 08:24:04;;;;;;;22.70;10.85;;;21.30;95.10;;;;;;4860309;29;20061;-70
2021/07/21 08:26:30;;;;;;;20.30;10.68;;;21.50;95.10;;;;;;4860798;29;20092;-74
2021/07/21 08:28:55;;;;;;;23.42;10.15;;;21.80;94.90;;;;;;4860413;29;20030;-72
2021/07/21 08:31:21;;;;;;;23.40;10.35;;;22.00;94.50;;;;;;4860074;29;20043;-72
2021/07/21 08:33:47;;;;;;;18.85;9.45;;;22.00;94.30;;;;;;4860221;29;20443;-72
2021/07/21 08:36:13;;;;;;;15.63;8.55;;;22.30;94.30;;;;;;4843572;29;20125;-71
2021/07/21 08:38:39;;;;;;;19.20;9.20;;;22.40;93.50;;;;;;4860610;29;20040;-70
2021/07/21 08:41:05;;;;;;;19.67;8.95;;;22.30;93.50;;;;;;4860009;29;20106;-72
2021/07/21 08:43:31;;;;;;;16.67;9.20;;;22.40;93.10;;;;;;4843805;29;20259;-72
2021/07/21 08:45:58;;;;;;;15.38;8.50;;;22.60;93.30;;;;;;4860263;29;20038;-71
2021/07/21 08:48:23;;;;;;;16.40;8.98;;;22.80;92.60;;;;;;4859703;29;20056;-72
2021/07/21 08:50:49;;;;;;;15.82;9.20;;;22.80;92.20;;;;;;4860386;29;20448;-72
2021/07/21 08:53:16;;;;;;;19.95;10.93;;;22.60;92.20;;;;;;4860070;29;20033;-71
2021/07/21 08:55:42;;;;;;;18.33;9.80;;;22.80;92.20;;;;;;4843438;29;20443;-73
2021/07/21 08:58:09;;;;;;;16.55;9.65;;;22.90;92.10;;;;;;4859994;29;20079;-71
2021/07/21 09:00:35;;;;;;;16.63;9.20;;;23.10;92.30;;;;;;4860005;29;20046;-72
2021/07/21 09:03:02;;;;;;;14.80;8.32;;;23.30;91.80;;;;;;4860014;29;20288;-72
2021/07/21 09:05:28;;;;;;;17.02;9.43;;;23.70;91.30;;;;;;4859942;29;20387;-73
2021/07/21 09:07:54;;;;;;;14.38;7.78;;;23.90;90.80;;;;;;4859811;29;20041;-73
2021/07/21 09:10:20;;;;;;;19.10;8.70;;;24.20;90.80;;;;;;4859455;29;20457;-73
2021/07/21 09:12:49;;;;;;;15.60;8.52;;;24.60;90.70;;;;;;4859540;29;20038;-73
2021/07/21 09:15:21;;;;;;;15.15;7.90;;;25.30;87.60;;;;;;4859613;29;20141;-72
2021/07/21 09:18:06;;;;;;;12.38;7.13;;;26.00;85.70;;;;;;4860316;29;20030;-72
2021/07/21 09:20:38;;;;;;;11.63;5.88;;;26.50;81.20;;;;;;4859532;29;20045;-72
2021/07/21 09:23:04;;;;;;;10.43;6.93;;;25.90;81.70;;;;;;4859205;29;20103;-72
2021/07/21 09:25:33;;;;;;;9.30;6.57;;;25.60;81.90;;;;;;4859316;29;20564;-72
2021/07/21 09:28:02;;;;;;;13.82;7.72;;;25.40;82.60;;;;;;4859202;29;20037;-71
2021/07/21 09:30:30;;;;;;;10.52;6.78;;;24.60;82.90;;;;;;4842905;29;20102;-71
2021/07/21 09:33:00;;;;;;;12.35;6.40;;;24.50;84.10;;;;;;4860033;29;20444;-71
2021/07/21 09:35:29;;;;;;;11.38;6.60;;;24.30;82.60;;;;;;4859392;29;20033;-72
2021/07/21 09:38:00;;;;;;;11.38;6.03;;;23.90;82.70;;;;;;4858687;29;20053;-72
2021/07/21 09:40:27;;;;;;;10.00;6.65;;;23.80;84.00;;;;;;4859101;29;20056;-72
2021/07/21 09:42:52;;;;;;;10.55;6.60;;;23.40;84.70;;;;;;4859294;29;20037;-71
2021/07/21 09:45:19;;;;;;;12.38;7.22;;;23.20;86.00;;;;;;4858802;29;20456;-72
2021/07/21 09:47:53;;;;;;;11.53;6.70;;;22.90;86.70;;;;;;4859369;29;20029;-72
2021/07/21 09:50:26;;;;;;;14.68;7.60;;;23.00;86.90;;;;;;4858852;29;20277;-71
2021/07/21 09:52:57;;;;;;;15.15;7.07;;;22.90;87.00;;;;;;4858879;29;20040;-71
2021/07/21 09:55:24;;;;;;;14.43;6.95;;;22.80;87.50;;;;;;4858601;29;20041;-70
2021/07/21 09:58:00;;;;;;;13.15;6.90;;;22.40;88.20;;;;;;4858688;29;20470;-71
2021/07/21 10:00:27;;;;;;;13.88;7.72;;;22.50;88.80;;;;;;4842105;29;20045;-72
2021/07/21 10:03:11;;;;;;;10.55;6.63;;;22.50;88.80;;;;;;4859139;29;20103;-71
2021/07/21 10:05:56;;;;;;;11.68;6.60;;;22.20;89.40;;;;;;4859088;29;20049;-72
2021/07/21 10:08:44;;;;;;;13.32;7.35;;;22.10;90.00;;;;;;4858912;29;20034;-71
2021/07/21 10:11:37;;;;;;;13.95;6.65;;;21.90;89.90;;;;;;4858681;29;20098;-71
2021/07/21 10:14:03;;;;;;;13.90;6.75;;;21.90;90.00;;;;;;4858690;29;20059;-71
2021/07/21 10:16:42;;;;;;;13.70;7.28;;;21.70;90.40;;;;;;4858690;29;20061;-71
2021/07/21 10:19:23;;;;;;;11.55;6.43;;;21.80;90.50;;;;;;4858558;29;20038;-71
2021/07/21 10:21:51;;;;;;;13.18;7.13;;;21.80;90.70;;;;;;4842181;29;20380;-71
2021/07/21 10:24:18;;;;;;;12.13;7.55;;;21.70;91.00;;;;;;4842125;29;20030;-72
2021/07/21 10:26:45;;;;;;;14.27;7.43;;;21.70;91.20;;;;;;4858962;29;20036;-72
2021/07/21 10:29:11;;;;;;;17.23;7.97;;;21.60;91.20;;;;;;4842055;29;20033;-71
2021/07/21 10:31:38;;;;;;;13.30;7.55;;;21.80;91.20;;;;;;4858424;29;20085;-72
2021/07/21 10:34:04;;;;;;;12.40;7.73;;;21.60;91.20;;;;;;4825609;29;20050;-69
2021/07/21 10:36:31;;;;;;;15.00;7.80;;;21.60;91.30;;;;;;4821562;29;20043;-70
2021/07/21 10:39:01;;;;;;;16.93;8.70;;;21.70;91.50;;;;;;4821994;29;20382;-70
2021/07/21 10:41:30;;;;;;;15.13;8.55;;;21.70;91.60;;;;;;4805629;29;20095;-70
2021/07/21 10:44:00;;;;;;;15.38;8.10;;;21.60;91.80;;;;;;4821759;29;20038;-71
2021/07/21 10:46:40;;;;;;;16.02;8.50;;;21.70;91.80;;;;;;4821953;29;20054;-69
2021/07/21 10:49:07;;;;;;;14.00;7.82;;;21.70;91.60;;;;;;4821880;29;20553;-70
2021/07/21 10:51:50;;;;;;;15.40;8.20;;;21.60;91.70;;;;;;4825365;29;20133;-69
2021/07/21 10:54:41;;;;;;;13.02;7.45;;;21.70;91.80;;;;;;4825196;29;20033;-69
2021/07/21 11:00:36;;;;;;;16.35;9.95;;;21.70;90.90;;;;;;4825155;29;20047;-72
2021/07/21 11:03:23;;;;;;;17.10;8.32;;;21.70;90.90;;;;;;4824652;29;20466;-72
2021/07/21 11:06:01;;;;;;;19.15;10.05;;;21.60;90.80;;;;;;4825640;29;20039;-71
2021/07/21 11:08:28;;;;;;;14.60;9.23;;;21.70;90.70;;;;;;4824777;29;20066;-71
2021/07/21 11:10:56;;;;;;;19.48;9.45;;;21.60;90.60;;;;;;4824763;29;20052;-71
2021/07/21 11:13:27;;;;;;;;;;;21.60;90.60;;;;;;4825513;29;20175;-72
2021/07/21 11:15:54;;;;;;;19.08;10.63;;;21.60;90.80;;;;;;4824946;29;19943;-71
2021/07/21 11:18:22;;;;;;;15.13;9.98;;;21.90;90.50;;;;;;4824734;29;20034;-72
2021/07/21 11:21:16;;;;;;;16.58;9.85;;;22.00;90.30;;;;;;4824994;29;20520;-72
2021/07/21 11:23:42;;;;;;;21.05;9.82;;;22.10;90.30;;;;;;4805760;29;20288;-71
2021/07/21 11:26:39;;;;;;;22.60;9.75;;;22.30;90.10;;;;;;4824733;29;20115;-72
2021/07/21 11:29:26;;;;;;;16.88;9.65;;;22.20;90.10;;;;;;4824651;29;20130;-71
2021/07/21 11:31:54;;;;;;;23.30;10.55;;;22.30;90.20;;;;;;4824614;29;20473;-71
2021/07/21 11:34:38;;;;;;;17.13;10.35;;;22.30;89.90;;;;;;4823544;29;20435;-72
2021/07/21 11:37:17;;;;;;;20.73;10.70;;;22.40;89.60;;;;;;4823964;29;20466;-72
2021/07/21 11:39:50;;;;;;;19.70;10.30;;;22.50;89.40;;;;;;4808327;29;20544;-73
2021/07/21 11:42:29;;;;;;;16.67;9.95;;;22.40;89.20;;;;;;4824085;29;20061;-72
2021/07/21 11:45:12;;;;;;;15.18;9.15;;;22.40;88.60;;;;;;4824710;29;20079;-71
2021/07/21 11:47:42;;;;;;;18.35;10.77;;;22.50;87.80;;;;;;4824523;29;20190;-71
2021/07/21 11:50:11;;;;;;;18.25;10.10;;;22.50;87.60;;;;;;4824333;29;20041;-71
2021/07/21 11:52:38;;;;;;;18.52;9.27;;;22.60;87.30;;;;;;4823995;29;20378;-72
2021/07/21 11:55:05;;;;;;;16.13;9.82;;;22.40;87.70;;;;;;4823996;29;20066;-72
2021/07/21 11:57:30;;;;;;;24.63;10.07;;;22.60;87.20;;;;;;4823988;29;20608;-72
2021/07/21 11:59:58;;;;;;;16.30;10.10;;;22.70;87.50;;;;;;4824218;29;20026;-72
2021/07/21 12:02:27;;;;;;;16.23;9.52;;;22.70;87.20;;;;;;4823756;29;20154;-72
2021/07/21 12:04:55;;;;;;;16.13;9.75;;;22.90;87.00;;;;;;4823864;29;20461;-71
2021/07/21 12:07:23;;;;;;;15.32;9.48;;;22.80;85.90;;;;;;4823879;29;20043;-72
2021/07/21 12:09:53;;;;;;;15.52;8.55;;;23.00;85.80;;;;;;4823808;29;20125;-73
2021/07/21 12:12:21;;;;;;;16.67;9.15;;;23.20;85.30;;;;;;4823880;29;20099;-73
2021/07/21 12:15:01;;;;;;;20.27;9.50;;;23.50;84.20;;;;;;4823818;29;20023;-72
2021/07/21 12:17:27;;;;;;;20.45;9.10;;;23.60;84.10;;;;;;4823923;29;20034;-73
2021/07/21 12:19:58;;;;;;;16.83;9.20;;;23.60;84.50;;;;;;4823565;29;20035;-72
2021/07/21 12:22:28;;;;;;;16.23;9.30;;;23.80;84.50;;;;;;4823843;29;20042;-73
2021/07/21 12:24:55;;;;;;;16.40;10.10;;;23.90;84.20;;;;;;4823712;29;20038;-72
2021/07/21 12:27:22;;;;;;;;;;;23.90;83.90;;;;;;4822941;29;20026;-72
2021/07/21 12:29:49;;;;;;;15.07;7.90;;;24.00;83.40;;;;;;4824250;29;19916;-73
2021/07/21 12:32:17;;;;;;;15.35;9.07;;;24.00;82.30;;;;;;4823490;29;20045;-72
2021/07/21 12:34:48;;;;;;;14.40;8.20;;;24.00;81.40;;;;;;4807395;29;20046;-73
2021/07/21 12:37:16;;;;;;;16.13;9.02;;;24.00;81.30;;;;;;4822388;29;20042;-72
2021/07/21 12:39:42;;;;;;;15.55;8.65;;;23.90;81.00;;;;;;4822013;29;20049;-72
2021/07/21 12:42:21;;;;;;;16.67;8.40;;;24.00;81.30;;;;;;4823409;29;20042;-73
2021/07/21 12:44:49;;;;;;;15.70;8.48;;;24.30;81.30;;;;;;4823644;29;20027;-73
2021/07/21 12:47:19;;;;;;;14.45;8.45;;;24.50;80.50;;;;;;4823287;29;20034;-73
2021/07/21 12:49:50;;;;;;;13.63;7.75;;;24.40;79.30;;;;;;4823389;29;20165;-72
2021/07/21 12:52:27;;;;;;;15.13;8.63;;;24.40;79.10;;;;;;4822281;29;20042;-71